Luhovicy, Russia
Current Conditions -  °F | °C
As of 1:30 PM on Thursday 27 Nov 2014 (Local Time) from UUDD Reporting Station
Haze Haze  
Wind Chill: 16°   Ceiling: 500
Heat Index: 16°   Visibility: 2.7mi
Dew Point: 14°   Wind: 2mph
Humidity: 93%   Direction: 160°SSE
Pressure: 30.48"   Gusts: NA
Location:  54.97°N, 39.04°E
Report Text: UUDD 271030Z 16001MPS 4400 BR BKN005 M09/M10 Q1032 6429009514290095 NOSIG
Loading
Personal Weather Stations






























Interactive Weather Map New forecast layout! Learn more

10-Day Weather Forecast

Advertisements
Track Severe Weather on mobile